Aviation Digital Data Service (ADDS)

Output produced by METARs form (1752 UTC 24 March 2017)
found at http://www.aviationweather.gov/adds/metars/
 
OJAQ 241800Z 36012KT CAVOK 19/04 Q1013 NOSIG
TAF OJAQ 241544Z 2418/2524 36012KT 7000 NSC
       
OJAM 241800Z 32003KT 5000 HZ NSC 12/05 Q1016 NOSIG
TAF OJAM 241544Z 2418/2524 30012KT 5000 HZ NSC 
     TEMPO 2502/2506 VRB02KT 3000 BR 
     BECMG 2506/2508 29012KT 5000 HZ NSC
       
OJAI 241600Z 30012KT 7000 NSC 15/06 Q1016 NOSIG
TAF OJAI 241544Z 2418/2524 30012KT 6000 NSC 
     TEMPO 2502/2506 VRB02KT 4000 BR 
     BECMG 2506/2508 29012KT 5000 HZ NSC
       
OJAM 241800Z 32003KT 5000 HZ NSC 12/05 Q1016 NOSIG
TAF OJAM 241544Z 2418/2524 30012KT 5000 HZ NSC 
     TEMPO 2502/2506 VRB02KT 3000 BR 
     BECMG 2506/2508 29012KT 5000 HZ NSC
       
OJAQ 241800Z 36012KT CAVOK 19/04 Q1013 NOSIG
TAF OJAQ 241544Z 2418/2524 36012KT 7000 NSC
       
OJAI 241600Z 30012KT 7000 NSC 15/06 Q1016 NOSIG
TAF OJAI 241544Z 2418/2524 30012KT 6000 NSC 
     TEMPO 2502/2506 VRB02KT 4000 BR 
     BECMG 2506/2508 29012KT 5000 HZ NSC